Terminal Aerodrome Forecast
Issued by NWS

Home | Current Version | Previous Version | Text Only | Print | Product List | Glossary On
Versions: 1 2 3 4 5 6 7 8 9 10 11 12 13 14 15 16 17 18 19 20
000
FTAK31 PAJN 220000 AAA
TAFASI
TAF AMD
PASI 220058Z 2201/2224 17028G43KT P6SM -RA BKN040 OVC050
      WS020/15045KT
     FM220400 16016G27KT 6SM -SHRA BR SCT020 OVC030 WS020/19035KT
     FM220600 18014KT 6SM -SHRA BR SCT020 OVC035
     FM221200 12007KT P6SM -SHRA BKN035 OVC050
     FM221800 16008KT P6SM -SHRA BKN025 OVC040=

USA.gov is the U.S. government's official web portal to all federal, state and local government web resources and services.